Portada
METAR-TAF:

METAR-TAF

Aeroports :

Pyongyang, Corea del Nord

latitud: 39-02N, longitud: 125-47E, altitud: 36 m

METAR: manca

Hora: 18:15 (09:15 UTC)

Pronòstic

L'informe es va fer fa 5 hores i 15 minuts, a les 04:00 UTC
Pronòstic vàlid del 22 a les 06 UTC al 23 a les 06 UTC
Vent 6 kt del Oest/Sud-Oest
Visibilitat 10 km o més
sense núvols per sota de 1500 mi sense presència de cumulonimbus.
Evolucionant progressivament
l' 22 a les 18 UTC al 22 a les 20 UTC
Vent 6 kt del Oest
Visibilitat: 3000 m
boirina

TAF: ZKPY 220400Z 2206/2306 24003MPS CAVOK TX05/2206Z TNM04/2222Z BECMG 2218/2220 28003MPS 3000 BR NSC

Observacions i pronòstics meteorològics de més de 4000 aeroports (METAR i TAF).

Les estacions disponibles són els punts grocs i vermells al mapa.

Posi el ratolí al punt desitjat per veure el nom de l'estació.

Feu clic per veure les observacions i els pronòstics meteorològics.

Per canviar el mapa: feu clic els botons verds amb una creu de color negre per apropar; al botó verd amb un guió per allunyar la imatge; o en les fletxes verdes per a mapes adjacents.


METAR-TAF: